sensor_id;sensor_type;location;lat;lon;timestamp;pressure;altitude;pressure_sealevel;temperature
69552;BMP280;63774;45.292;11.784;2023-07-02T00:00:03;101170.17;;;26.96
69552;BMP280;63774;45.292;11.784;2023-07-02T00:02:30;101171.06;;;26.96
69552;BMP280;63774;45.292;11.784;2023-07-02T00:04:55;101164.86;;;26.95
69552;BMP280;63774;45.292;11.784;2023-07-02T00:07:21;101165.23;;;26.95
69552;BMP280;63774;45.292;11.784;2023-07-02T00:09:46;101163.83;;;26.95
69552;BMP280;63774;45.292;11.784;2023-07-02T00:12:13;101159.98;;;26.96
69552;BMP280;63774;45.292;11.784;2023-07-02T00:14:39;101158.30;;;26.96
69552;BMP280;63774;45.292;11.784;2023-07-02T00:17:04;101157.29;;;26.95
69552;BMP280;63774;45.292;11.784;2023-07-02T00:19:29;101160.86;;;26.95
69552;BMP280;63774;45.292;11.784;2023-07-02T00:21:55;101163.33;;;26.96
69552;BMP280;63774;45.292;11.784;2023-07-02T00:24:21;101162.83;;;26.95
69552;BMP280;63774;45.292;11.784;2023-07-02T00:26:46;101160.58;;;26.96
69552;BMP280;63774;45.292;11.784;2023-07-02T00:29:12;101155.91;;;26.95
69552;BMP280;63774;45.292;11.784;2023-07-02T00:31:37;101156.45;;;26.95
69552;BMP280;63774;45.292;11.784;2023-07-02T00:34:03;101156.66;;;26.95
69552;BMP280;63774;45.292;11.784;2023-07-02T00:36:30;101153.59;;;26.95
69552;BMP280;63774;45.292;11.784;2023-07-02T00:38:56;101152.63;;;26.95
69552;BMP280;63774;45.292;11.784;2023-07-02T00:41:21;101149.85;;;26.94
69552;BMP280;63774;45.292;11.784;2023-07-02T00:43:47;101150.04;;;26.94
69552;BMP280;63774;45.292;11.784;2023-07-02T00:46:17;101145.70;;;26.95
69552;BMP280;63774;45.292;11.784;2023-07-02T00:48:47;101143.22;;;26.95
69552;BMP280;63774;45.292;11.784;2023-07-02T00:51:17;101144.84;;;26.95
69552;BMP280;63774;45.292;11.784;2023-07-02T00:53:47;101144.30;;;26.94
69552;BMP280;63774;45.292;11.784;2023-07-02T00:56:13;101141.80;;;26.95
69552;BMP280;63774;45.292;11.784;2023-07-02T00:58:42;101144.98;;;26.93
69552;BMP280;63774;45.292;11.784;2023-07-02T01:01:19;101140.75;;;26.93
69552;BMP280;63774;45.292;11.784;2023-07-02T01:04:04;101142.48;;;26.93
69552;BMP280;63774;45.292;11.784;2023-07-02T01:06:32;101140.75;;;26.94
69552;BMP280;63774;45.292;11.784;2023-07-02T01:08:59;101138.70;;;26.93
69552;BMP280;63774;45.292;11.784;2023-07-02T01:11:31;101137.37;;;26.93
69552;BMP280;63774;45.292;11.784;2023-07-02T01:14:19;101135.66;;;26.93
69552;BMP280;63774;45.292;11.784;2023-07-02T01:16:47;101137.23;;;26.93
69552;BMP280;63774;45.292;11.784;2023-07-02T01:19:20;101144.92;;;26.93
69552;BMP280;63774;45.292;11.784;2023-07-02T01:21:47;101146.39;;;26.93
69552;BMP280;63774;45.292;11.784;2023-07-02T01:24:14;101142.85;;;26.92
69552;BMP280;63774;45.292;11.784;2023-07-02T01:26:40;101144.69;;;26.92
69552;BMP280;63774;45.292;11.784;2023-07-02T01:29:16;101146.98;;;26.92
69552;BMP280;63774;45.292;11.784;2023-07-02T01:31:42;101142.96;;;26.92
69552;BMP280;63774;45.292;11.784;2023-07-02T01:34:07;101142.49;;;26.92
69552;BMP280;63774;45.292;11.784;2023-07-02T01:36:34;101137.11;;;26.92
69552;BMP280;63774;45.292;11.784;2023-07-02T01:39:00;101135.20;;;26.92
69552;BMP280;63774;45.292;11.784;2023-07-02T01:41:25;101134.63;;;26.92
69552;BMP280;63774;45.292;11.784;2023-07-02T01:43:50;101133.45;;;26.92
69552;BMP280;63774;45.292;11.784;2023-07-02T01:46:16;101134.87;;;26.91
69552;BMP280;63774;45.292;11.784;2023-07-02T01:48:41;101131.22;;;26.91
69552;BMP280;63774;45.292;11.784;2023-07-02T01:51:06;101129.48;;;26.91
69552;BMP280;63774;45.292;11.784;2023-07-02T01:53:32;101132.14;;;26.91
69552;BMP280;63774;45.292;11.784;2023-07-02T01:55:57;101133.15;;;26.91
69552;BMP280;63774;45.292;11.784;2023-07-02T01:58:23;101132.89;;;26.91
69552;BMP280;63774;45.292;11.784;2023-07-02T02:00:49;101136.23;;;26.92
69552;BMP280;63774;45.292;11.784;2023-07-02T02:03:15;101138.54;;;26.91
69552;BMP280;63774;45.292;11.784;2023-07-02T02:05:40;101138.16;;;26.91
69552;BMP280;63774;45.292;11.784;2023-07-02T02:08:05;101140.64;;;26.91
69552;BMP280;63774;45.292;11.784;2023-07-02T02:10:31;101139.88;;;26.91
69552;BMP280;63774;45.292;11.784;2023-07-02T02:12:56;101143.94;;;26.91
69552;BMP280;63774;45.292;11.784;2023-07-02T02:15:21;101145.90;;;26.91
69552;BMP280;63774;45.292;11.784;2023-07-02T02:17:47;101146.40;;;26.91
69552;BMP280;63774;45.292;11.784;2023-07-02T02:20:12;101145.08;;;26.91
69552;BMP280;63774;45.292;11.784;2023-07-02T02:22:38;101146.54;;;26.90
69552;BMP280;63774;45.292;11.784;2023-07-02T02:25:03;101151.01;;;26.91
69552;BMP280;63774;45.292;11.784;2023-07-02T02:27:29;101154.63;;;26.91
69552;BMP280;63774;45.292;11.784;2023-07-02T02:29:54;101155.69;;;26.91
69552;BMP280;63774;45.292;11.784;2023-07-02T02:32:20;101155.02;;;26.91
69552;BMP280;63774;45.292;11.784;2023-07-02T02:34:47;101151.82;;;26.91
69552;BMP280;63774;45.292;11.784;2023-07-02T02:37:12;101152.24;;;26.90
69552;BMP280;63774;45.292;11.784;2023-07-02T02:39:37;101154.34;;;26.90
69552;BMP280;63774;45.292;11.784;2023-07-02T02:42:03;101157.88;;;26.90
69552;BMP280;63774;45.292;11.784;2023-07-02T02:44:29;101152.98;;;26.90
69552;BMP280;63774;45.292;11.784;2023-07-02T02:46:54;101154.48;;;26.90
69552;BMP280;63774;45.292;11.784;2023-07-02T02:49:20;101155.97;;;26.90
69552;BMP280;63774;45.292;11.784;2023-07-02T02:51:45;101159.41;;;26.90
69552;BMP280;63774;45.292;11.784;2023-07-02T02:54:11;101161.14;;;26.90
69552;BMP280;63774;45.292;11.784;2023-07-02T02:56:36;101152.84;;;26.90
69552;BMP280;63774;45.292;11.784;2023-07-02T02:59:02;101154.15;;;26.90
69552;BMP280;63774;45.292;11.784;2023-07-02T03:01:27;101152.52;;;26.90
69552;BMP280;63774;45.292;11.784;2023-07-02T03:03:58;101153.69;;;26.90
69552;BMP280;63774;45.292;11.784;2023-07-02T03:06:24;101157.44;;;26.89
69552;BMP280;63774;45.292;11.784;2023-07-02T03:08:49;101155.02;;;26.89
69552;BMP280;63774;45.292;11.784;2023-07-02T03:11:15;101159.14;;;26.89
69552;BMP280;63774;45.292;11.784;2023-07-02T03:13:40;101157.97;;;26.89
69552;BMP280;63774;45.292;11.784;2023-07-02T03:16:06;101157.92;;;26.89
69552;BMP280;63774;45.292;11.784;2023-07-02T03:18:32;101156.58;;;26.88
69552;BMP280;63774;45.292;11.784;2023-07-02T03:20:58;101157.65;;;26.89
69552;BMP280;63774;45.292;11.784;2023-07-02T03:23:23;101156.96;;;26.88
69552;BMP280;63774;45.292;11.784;2023-07-02T03:25:48;101159.41;;;26.88
69552;BMP280;63774;45.292;11.784;2023-07-02T03:28:14;101161.47;;;26.89
69552;BMP280;63774;45.292;11.784;2023-07-02T03:30:39;101167.67;;;26.88
69552;BMP280;63774;45.292;11.784;2023-07-02T03:33:05;101172.17;;;26.88
69552;BMP280;63774;45.292;11.784;2023-07-02T03:35:31;101175.19;;;26.89
69552;BMP280;63774;45.292;11.784;2023-07-02T03:37:56;101175.05;;;26.88
69552;BMP280;63774;45.292;11.784;2023-07-02T03:40:23;101178.52;;;26.88
69552;BMP280;63774;45.292;11.784;2023-07-02T03:42:48;101178.93;;;26.87
69552;BMP280;63774;45.292;11.784;2023-07-02T03:45:13;101179.15;;;26.87
69552;BMP280;63774;45.292;11.784;2023-07-02T03:47:39;101176.66;;;26.87
69552;BMP280;63774;45.292;11.784;2023-07-02T03:50:05;101175.20;;;26.87
69552;BMP280;63774;45.292;11.784;2023-07-02T03:52:30;101175.88;;;26.87
69552;BMP280;63774;45.292;11.784;2023-07-02T03:54:55;101178.11;;;26.87
69552;BMP280;63774;45.292;11.784;2023-07-02T03:57:21;101177.89;;;26.87
69552;BMP280;63774;45.292;11.784;2023-07-02T03:59:46;101179.20;;;26.87
69552;BMP280;63774;45.292;11.784;2023-07-02T04:02:11;101182.02;;;26.86
69552;BMP280;63774;45.292;11.784;2023-07-02T04:04:37;101179.81;;;26.87
69552;BMP280;63774;45.292;11.784;2023-07-02T04:07:02;101180.95;;;26.86
69552;BMP280;63774;45.292;11.784;2023-07-02T04:09:28;101184.00;;;26.86
69552;BMP280;63774;45.292;11.784;2023-07-02T04:11:53;101188.63;;;26.86
69552;BMP280;63774;45.292;11.784;2023-07-02T04:14:18;101192.69;;;26.86
69552;BMP280;63774;45.292;11.784;2023-07-02T04:16:45;101196.43;;;26.86
69552;BMP280;63774;45.292;11.784;2023-07-02T04:19:10;101197.84;;;26.87
69552;BMP280;63774;45.292;11.784;2023-07-02T04:21:36;101198.70;;;26.86
69552;BMP280;63774;45.292;11.784;2023-07-02T04:24:01;101204.04;;;26.86
69552;BMP280;63774;45.292;11.784;2023-07-02T04:26:27;101207.60;;;26.86
69552;BMP280;63774;45.292;11.784;2023-07-02T04:28:53;101205.89;;;26.86
69552;BMP280;63774;45.292;11.784;2023-07-02T04:31:20;101208.70;;;26.86
69552;BMP280;63774;45.292;11.784;2023-07-02T04:33:45;101210.64;;;26.86
69552;BMP280;63774;45.292;11.784;2023-07-02T04:36:11;101212.70;;;26.87
69552;BMP280;63774;45.292;11.784;2023-07-02T04:38:37;101215.45;;;26.87
69552;BMP280;63774;45.292;11.784;2023-07-02T04:41:04;101219.67;;;26.86
69552;BMP280;63774;45.292;11.784;2023-07-02T04:43:33;101220.42;;;26.86
69552;BMP280;63774;45.292;11.784;2023-07-02T04:45:59;101220.94;;;26.85
69552;BMP280;63774;45.292;11.784;2023-07-02T04:48:24;101221.70;;;26.86
69552;BMP280;63774;45.292;11.784;2023-07-02T04:50:50;101224.96;;;26.86
69552;BMP280;63774;45.292;11.784;2023-07-02T04:53:16;101227.05;;;26.86
69552;BMP280;63774;45.292;11.784;2023-07-02T04:55:41;101228.77;;;26.86
69552;BMP280;63774;45.292;11.784;2023-07-02T04:58:07;101226.48;;;26.86
69552;BMP280;63774;45.292;11.784;2023-07-02T05:00:32;101223.44;;;26.86
69552;BMP280;63774;45.292;11.784;2023-07-02T05:02:58;101223.98;;;26.86
69552;BMP280;63774;45.292;11.784;2023-07-02T05:05:23;101225.44;;;26.87
69552;BMP280;63774;45.292;11.784;2023-07-02T05:07:49;101226.23;;;26.87
69552;BMP280;63774;45.292;11.784;2023-07-02T05:10:14;101229.73;;;26.87
69552;BMP280;63774;45.292;11.784;2023-07-02T05:12:40;101231.25;;;26.87
69552;BMP280;63774;45.292;11.784;2023-07-02T05:15:06;101230.95;;;26.87
69552;BMP280;63774;45.292;11.784;2023-07-02T05:17:31;101231.89;;;26.87
69552;BMP280;63774;45.292;11.784;2023-07-02T05:20:00;101233.44;;;26.87
69552;BMP280;63774;45.292;11.784;2023-07-02T05:22:26;101235.20;;;26.87
69552;BMP280;63774;45.292;11.784;2023-07-02T05:24:51;101235.75;;;26.87
69552;BMP280;63774;45.292;11.784;2023-07-02T05:27:17;101236.39;;;26.87
69552;BMP280;63774;45.292;11.784;2023-07-02T05:29:43;101242.19;;;26.87
69552;BMP280;63774;45.292;11.784;2023-07-02T05:32:08;101245.13;;;26.87
69552;BMP280;63774;45.292;11.784;2023-07-02T05:34:34;101243.63;;;26.87
69552;BMP280;63774;45.292;11.784;2023-07-02T05:36:59;101244.48;;;26.87
69552;BMP280;63774;45.292;11.784;2023-07-02T05:39:25;101245.97;;;26.87
69552;BMP280;63774;45.292;11.784;2023-07-02T05:41:50;101247.88;;;26.87
69552;BMP280;63774;45.292;11.784;2023-07-02T05:44:16;101247.40;;;26.87
69552;BMP280;63774;45.292;11.784;2023-07-02T05:46:42;101249.20;;;26.86
69552;BMP280;63774;45.292;11.784;2023-07-02T05:49:08;101252.72;;;26.87
69552;BMP280;63774;45.292;11.784;2023-07-02T05:51:33;101252.14;;;26.87
69552;BMP280;63774;45.292;11.784;2023-07-02T05:53:58;101255.81;;;26.87
69552;BMP280;63774;45.292;11.784;2023-07-02T05:56:24;101256.49;;;26.87
69552;BMP280;63774;45.292;11.784;2023-07-02T05:58:49;101262.16;;;26.87
69552;BMP280;63774;45.292;11.784;2023-07-02T06:01:15;101262.88;;;26.87
69552;BMP280;63774;45.292;11.784;2023-07-02T06:03:41;101263.70;;;26.87
69552;BMP280;63774;45.292;11.784;2023-07-02T06:06:07;101267.79;;;26.87
69552;BMP280;63774;45.292;11.784;2023-07-02T06:08:32;101272.11;;;26.87
69552;BMP280;63774;45.292;11.784;2023-07-02T06:10:58;101274.77;;;26.88
69552;BMP280;63774;45.292;11.784;2023-07-02T06:13:23;101274.86;;;26.87
69552;BMP280;63774;45.292;11.784;2023-07-02T06:15:49;101278.52;;;26.87
69552;BMP280;63774;45.292;11.784;2023-07-02T06:18:14;101279.01;;;26.88
69552;BMP280;63774;45.292;11.784;2023-07-02T06:20:40;101280.89;;;26.88
69552;BMP280;63774;45.292;11.784;2023-07-02T06:23:05;101282.04;;;26.88
69552;BMP280;63774;45.292;11.784;2023-07-02T06:25:30;101280.43;;;26.88
69552;BMP280;63774;45.292;11.784;2023-07-02T06:27:56;101279.11;;;26.88
69552;BMP280;63774;45.292;11.784;2023-07-02T06:30:24;101279.14;;;26.88
69552;BMP280;63774;45.292;11.784;2023-07-02T06:32:49;101279.91;;;26.89
69552;BMP280;63774;45.292;11.784;2023-07-02T06:35:14;101278.49;;;26.89
69552;BMP280;63774;45.292;11.784;2023-07-02T06:37:40;101278.56;;;26.89
69552;BMP280;63774;45.292;11.784;2023-07-02T06:40:06;101277.59;;;26.89
69552;BMP280;63774;45.292;11.784;2023-07-02T06:42:31;101280.04;;;26.89
69552;BMP280;63774;45.292;11.784;2023-07-02T06:44:58;101278.17;;;26.89
69552;BMP280;63774;45.292;11.784;2023-07-02T06:47:23;101277.20;;;26.89
69552;BMP280;63774;45.292;11.784;2023-07-02T06:49:49;101278.17;;;26.89
69552;BMP280;63774;45.292;11.784;2023-07-02T06:52:14;101279.46;;;26.89
69552;BMP280;63774;45.292;11.784;2023-07-02T06:54:39;101277.71;;;26.89
69552;BMP280;63774;45.292;11.784;2023-07-02T06:57:05;101277.38;;;26.89
69552;BMP280;63774;45.292;11.784;2023-07-02T06:59:31;101277.65;;;26.90
69552;BMP280;63774;45.292;11.784;2023-07-02T07:01:56;101277.48;;;26.90
69552;BMP280;63774;45.292;11.784;2023-07-02T07:04:21;101279.77;;;26.90
69552;BMP280;63774;45.292;11.784;2023-07-02T07:06:47;101279.33;;;26.90
69552;BMP280;63774;45.292;11.784;2023-07-02T07:09:12;101278.81;;;26.90
69552;BMP280;63774;45.292;11.784;2023-07-02T07:11:38;101277.16;;;26.89
69552;BMP280;63774;45.292;11.784;2023-07-02T07:14:03;101279.56;;;26.89
69552;BMP280;63774;45.292;11.784;2023-07-02T07:16:28;101281.46;;;26.90
69552;BMP280;63774;45.292;11.784;2023-07-02T07:18:54;101279.95;;;26.90
69552;BMP280;63774;45.292;11.784;2023-07-02T07:21:19;101283.22;;;26.90
69552;BMP280;63774;45.292;11.784;2023-07-02T07:23:45;101283.96;;;26.90
69552;BMP280;63774;45.292;11.784;2023-07-02T07:26:10;101285.73;;;26.90
69552;BMP280;63774;45.292;11.784;2023-07-02T07:28:36;101286.75;;;26.90
69552;BMP280;63774;45.292;11.784;2023-07-02T07:31:01;101286.86;;;26.90
69552;BMP280;63774;45.292;11.784;2023-07-02T07:33:27;101287.61;;;26.91
69552;BMP280;63774;45.292;11.784;2023-07-02T07:35:53;101288.55;;;26.91
69552;BMP280;63774;45.292;11.784;2023-07-02T07:38:18;101288.80;;;26.91
69552;BMP280;63774;45.292;11.784;2023-07-02T07:40:43;101284.52;;;26.90
69552;BMP280;63774;45.292;11.784;2023-07-02T07:43:09;101281.60;;;26.91
69552;BMP280;63774;45.292;11.784;2023-07-02T07:45:34;101282.21;;;26.91
69552;BMP280;63774;45.292;11.784;2023-07-02T07:48:00;101284.70;;;26.91
69552;BMP280;63774;45.292;11.784;2023-07-02T07:50:26;101288.56;;;26.92
69552;BMP280;63774;45.292;11.784;2023-07-02T07:52:51;101290.48;;;26.92
69552;BMP280;63774;45.292;11.784;2023-07-02T07:55:17;101291.41;;;26.92
69552;BMP280;63774;45.292;11.784;2023-07-02T07:57:42;101292.45;;;26.92
69552;BMP280;63774;45.292;11.784;2023-07-02T08:00:09;101294.79;;;26.93
69552;BMP280;63774;45.292;11.784;2023-07-02T08:02:38;101293.04;;;26.93
69552;BMP280;63774;45.292;11.784;2023-07-02T08:05:04;101292.81;;;26.93
69552;BMP280;63774;45.292;11.784;2023-07-02T08:07:32;101291.68;;;26.92
69552;BMP280;63774;45.292;11.784;2023-07-02T08:09:59;101288.73;;;26.93
69552;BMP280;63774;45.292;11.784;2023-07-02T08:12:24;101287.85;;;26.92
69552;BMP280;63774;45.292;11.784;2023-07-02T08:14:52;101289.87;;;26.92
69552;BMP280;63774;45.292;11.784;2023-07-02T08:17:17;101292.84;;;26.92
69552;BMP280;63774;45.292;11.784;2023-07-02T08:19:43;101295.03;;;26.92
69552;BMP280;63774;45.292;11.784;2023-07-02T08:22:08;101296.96;;;26.92
69552;BMP280;63774;45.292;11.784;2023-07-02T08:24:34;101300.64;;;26.92
69552;BMP280;63774;45.292;11.784;2023-07-02T08:26:59;101301.69;;;26.93
69552;BMP280;63774;45.292;11.784;2023-07-02T08:29:26;101300.03;;;26.93
69552;BMP280;63774;45.292;11.784;2023-07-02T08:31:51;101301.52;;;26.93
69552;BMP280;63774;45.292;11.784;2023-07-02T08:34:17;101304.60;;;26.95
69552;BMP280;63774;45.292;11.784;2023-07-02T08:36:42;101301.42;;;26.95
69552;BMP280;63774;45.292;11.784;2023-07-02T08:39:09;101302.32;;;26.95
69552;BMP280;63774;45.292;11.784;2023-07-02T08:41:47;101302.65;;;26.96
69552;BMP280;63774;45.292;11.784;2023-07-02T08:44:21;101301.64;;;26.96
69552;BMP280;63774;45.292;11.784;2023-07-02T08:46:47;101301.37;;;26.96
69552;BMP280;63774;45.292;11.784;2023-07-02T08:49:16;101303.11;;;26.96
69552;BMP280;63774;45.292;11.784;2023-07-02T08:51:45;101306.27;;;26.96
69552;BMP280;63774;45.292;11.784;2023-07-02T08:54:10;101306.94;;;26.97
69552;BMP280;63774;45.292;11.784;2023-07-02T08:56:36;101305.55;;;26.97
69552;BMP280;63774;45.292;11.784;2023-07-02T08:59:01;101304.69;;;26.98
69552;BMP280;63774;45.292;11.784;2023-07-02T09:01:26;101306.44;;;26.98
69552;BMP280;63774;45.292;11.784;2023-07-02T09:03:58;101303.99;;;26.98
69552;BMP280;63774;45.292;11.784;2023-07-02T09:06:25;101306.55;;;26.99
69552;BMP280;63774;45.292;11.784;2023-07-02T09:08:50;101306.09;;;27.00
69552;BMP280;63774;45.292;11.784;2023-07-02T09:11:16;101307.77;;;27.00
69552;BMP280;63774;45.292;11.784;2023-07-02T09:13:46;101309.30;;;27.00
69552;BMP280;63774;45.292;11.784;2023-07-02T09:24:23;101309.98;;;27.01
69552;BMP280;63774;45.292;11.784;2023-07-02T09:29:33;101308.56;;;27.01
69552;BMP280;63774;45.292;11.784;2023-07-02T09:32:08;101306.37;;;27.01
69552;BMP280;63774;45.292;11.784;2023-07-02T09:34:35;101309.58;;;27.01
69552;BMP280;63774;45.292;11.784;2023-07-02T09:37:02;101308.49;;;27.00
69552;BMP280;63774;45.292;11.784;2023-07-02T09:39:33;101308.48;;;27.00
69552;BMP280;63774;45.292;11.784;2023-07-02T09:42:01;101308.39;;;27.01
69552;BMP280;63774;45.292;11.784;2023-07-02T09:44:31;101308.88;;;27.01
69552;BMP280;63774;45.292;11.784;2023-07-02T09:47:10;101308.17;;;27.01
69552;BMP280;63774;45.292;11.784;2023-07-02T09:49:38;101307.99;;;27.01
69552;BMP280;63774;45.292;11.784;2023-07-02T09:52:09;101310.49;;;27.01
69552;BMP280;63774;45.292;11.784;2023-07-02T09:54:34;101311.83;;;27.02
69552;BMP280;63774;45.292;11.784;2023-07-02T09:57:00;101313.17;;;27.02
69552;BMP280;63774;45.292;11.784;2023-07-02T09:59:27;101311.92;;;27.02
69552;BMP280;63774;45.292;11.784;2023-07-02T10:01:52;101312.52;;;27.02
69552;BMP280;63774;45.292;11.784;2023-07-02T10:04:19;101311.84;;;27.02
69552;BMP280;63774;45.292;11.784;2023-07-02T10:06:49;101313.52;;;27.02
69552;BMP280;63774;45.292;11.784;2023-07-02T10:09:18;101311.77;;;27.02
69552;BMP280;63774;45.292;11.784;2023-07-02T10:11:44;101310.11;;;27.02
69552;BMP280;63774;45.292;11.784;2023-07-02T10:14:10;101306.52;;;27.02
69552;BMP280;63774;45.292;11.784;2023-07-02T10:16:52;101306.65;;;27.02
69552;BMP280;63774;45.292;11.784;2023-07-02T10:19:18;101304.84;;;27.03
69552;BMP280;63774;45.292;11.784;2023-07-02T10:21:44;101304.95;;;27.02
69552;BMP280;63774;45.292;11.784;2023-07-02T10:24:16;101305.96;;;27.03
69552;BMP280;63774;45.292;11.784;2023-07-02T10:27:11;101306.63;;;27.03
69552;BMP280;63774;45.292;11.784;2023-07-02T10:29:37;101306.55;;;27.03
69552;BMP280;63774;45.292;11.784;2023-07-02T10:32:03;101304.30;;;27.03
69552;BMP280;63774;45.292;11.784;2023-07-02T10:34:34;101301.44;;;27.03
69552;BMP280;63774;45.292;11.784;2023-07-02T10:37:01;101301.70;;;27.03
69552;BMP280;63774;45.292;11.784;2023-07-02T10:39:29;101298.31;;;27.03
69552;BMP280;63774;45.292;11.784;2023-07-02T10:42:08;101296.77;;;27.04
69552;BMP280;63774;45.292;11.784;2023-07-02T10:44:47;101293.69;;;27.04
69552;BMP280;63774;45.292;11.784;2023-07-02T10:47:12;101295.06;;;27.05
69552;BMP280;63774;45.292;11.784;2023-07-02T10:49:39;101293.52;;;27.04
69552;BMP280;63774;45.292;11.784;2023-07-02T10:52:05;101295.01;;;27.05
69552;BMP280;63774;45.292;11.784;2023-07-02T10:57:09;101289.71;;;27.04
69552;BMP280;63774;45.292;11.784;2023-07-02T10:59:34;101292.98;;;27.04
69552;BMP280;63774;45.292;11.784;2023-07-02T11:02:00;101294.39;;;27.04
69552;BMP280;63774;45.292;11.784;2023-07-02T11:04:29;101292.34;;;27.05
69552;BMP280;63774;45.292;11.784;2023-07-02T11:06:55;101293.03;;;27.04
69552;BMP280;63774;45.292;11.784;2023-07-02T11:09:20;101291.19;;;27.04
69552;BMP280;63774;45.292;11.784;2023-07-02T11:12:00;101290.64;;;27.04
69552;BMP280;63774;45.292;11.784;2023-07-02T11:14:33;101292.60;;;27.05
69552;BMP280;63774;45.292;11.784;2023-07-02T11:17:01;101291.39;;;27.05
69552;BMP280;63774;45.292;11.784;2023-07-02T11:19:28;101289.74;;;27.05
69552;BMP280;63774;45.292;11.784;2023-07-02T11:21:57;101294.90;;;27.05
69552;BMP280;63774;45.292;11.784;2023-07-02T11:24:41;101294.56;;;27.05
69552;BMP280;63774;45.292;11.784;2023-07-02T11:27:07;101291.08;;;27.05
69552;BMP280;63774;45.292;11.784;2023-07-02T11:29:34;101289.39;;;27.05
69552;BMP280;63774;45.292;11.784;2023-07-02T11:32:07;101289.04;;;27.05
69552;BMP280;63774;45.292;11.784;2023-07-02T11:34:32;101288.61;;;27.06
69552;BMP280;63774;45.292;11.784;2023-07-02T11:36:58;101287.08;;;27.05
69552;BMP280;63774;45.292;11.784;2023-07-02T11:39:23;101284.48;;;27.05
69552;BMP280;63774;45.292;11.784;2023-07-02T11:41:49;101286.23;;;27.06
69552;BMP280;63774;45.292;11.784;2023-07-02T11:44:16;101285.52;;;27.06
69552;BMP280;63774;45.292;11.784;2023-07-02T11:46:41;101286.81;;;27.06
69552;BMP280;63774;45.292;11.784;2023-07-02T11:49:06;101282.29;;;27.06
69552;BMP280;63774;45.292;11.784;2023-07-02T11:51:39;101281.65;;;27.07
69552;BMP280;63774;45.292;11.784;2023-07-02T11:54:05;101279.38;;;27.07
69552;BMP280;63774;45.292;11.784;2023-07-02T11:56:31;101280.05;;;27.07
69552;BMP280;63774;45.292;11.784;2023-07-02T11:58:56;101278.19;;;27.07
69552;BMP280;63774;45.292;11.784;2023-07-02T12:01:22;101277.46;;;27.07
69552;BMP280;63774;45.292;11.784;2023-07-02T12:03:47;101277.32;;;27.07
69552;BMP280;63774;45.292;11.784;2023-07-02T12:06:13;101274.84;;;27.07
69552;BMP280;63774;45.292;11.784;2023-07-02T12:08:38;101276.62;;;27.07
69552;BMP280;63774;45.292;11.784;2023-07-02T12:11:03;101275.70;;;27.07
69552;BMP280;63774;45.292;11.784;2023-07-02T12:13:29;101276.45;;;27.07
69552;BMP280;63774;45.292;11.784;2023-07-02T12:15:54;101273.59;;;27.08
69552;BMP280;63774;45.292;11.784;2023-07-02T12:18:20;101269.81;;;27.07
69552;BMP280;63774;45.292;11.784;2023-07-02T12:20:45;101270.86;;;27.07
69552;BMP280;63774;45.292;11.784;2023-07-02T12:23:11;101270.68;;;27.07
69552;BMP280;63774;45.292;11.784;2023-07-02T12:25:37;101266.59;;;27.07
69552;BMP280;63774;45.292;11.784;2023-07-02T12:28:03;101265.34;;;27.07
69552;BMP280;63774;45.292;11.784;2023-07-02T12:30:29;101264.13;;;27.08
69552;BMP280;63774;45.292;11.784;2023-07-02T12:32:55;101267.98;;;27.08
69552;BMP280;63774;45.292;11.784;2023-07-02T12:35:20;101267.62;;;27.08
69552;BMP280;63774;45.292;11.784;2023-07-02T12:37:48;101267.51;;;27.08
69552;BMP280;63774;45.292;11.784;2023-07-02T12:40:14;101265.06;;;27.09
69552;BMP280;63774;45.292;11.784;2023-07-02T12:42:43;101264.69;;;27.09
69552;BMP280;63774;45.292;11.784;2023-07-02T12:45:10;101261.70;;;27.09
69552;BMP280;63774;45.292;11.784;2023-07-02T12:47:37;101257.85;;;27.10
69552;BMP280;63774;45.292;11.784;2023-07-02T12:50:03;101257.59;;;27.10
69552;BMP280;63774;45.292;11.784;2023-07-02T12:52:29;101254.27;;;27.10
69552;BMP280;63774;45.292;11.784;2023-07-02T12:54:55;101254.61;;;27.10
69552;BMP280;63774;45.292;11.784;2023-07-02T12:57:20;101253.11;;;27.11
69552;BMP280;63774;45.292;11.784;2023-07-02T12:59:46;101252.16;;;27.11
69552;BMP280;63774;45.292;11.784;2023-07-02T13:02:11;101250.82;;;27.11
69552;BMP280;63774;45.292;11.784;2023-07-02T13:04:38;101252.58;;;27.11
69552;BMP280;63774;45.292;11.784;2023-07-02T13:07:03;101247.92;;;27.11
69552;BMP280;63774;45.292;11.784;2023-07-02T13:09:29;101248.80;;;27.12
69552;BMP280;63774;45.292;11.784;2023-07-02T13:11:54;101248.18;;;27.13
69552;BMP280;63774;45.292;11.784;2023-07-02T13:14:20;101248.91;;;27.13
69552;BMP280;63774;45.292;11.784;2023-07-02T13:16:45;101246.46;;;27.13
69552;BMP280;63774;45.292;11.784;2023-07-02T13:19:11;101242.03;;;27.13
69552;BMP280;63774;45.292;11.784;2023-07-02T13:21:36;101242.75;;;27.13
69552;BMP280;63774;45.292;11.784;2023-07-02T13:24:02;101239.58;;;27.14
69552;BMP280;63774;45.292;11.784;2023-07-02T13:26:28;101241.18;;;27.14
69552;BMP280;63774;45.292;11.784;2023-07-02T13:28:53;101242.48;;;27.14
69552;BMP280;63774;45.292;11.784;2023-07-02T13:31:19;101242.61;;;27.14
69552;BMP280;63774;45.292;11.784;2023-07-02T13:33:44;101238.36;;;27.14
69552;BMP280;63774;45.292;11.784;2023-07-02T13:36:11;101240.55;;;27.15
69552;BMP280;63774;45.292;11.784;2023-07-02T13:38:37;101242.92;;;27.15
69552;BMP280;63774;45.292;11.784;2023-07-02T13:41:03;101242.55;;;27.15
69552;BMP280;63774;45.292;11.784;2023-07-02T13:43:29;101242.86;;;27.15
69552;BMP280;63774;45.292;11.784;2023-07-02T13:45:54;101245.00;;;27.15
69552;BMP280;63774;45.292;11.784;2023-07-02T13:48:19;101249.60;;;27.15
69552;BMP280;63774;45.292;11.784;2023-07-02T13:50:45;101248.91;;;27.15
69552;BMP280;63774;45.292;11.784;2023-07-02T13:53:10;101245.71;;;27.15